Terminal Aerodrome Forecast
Issued by NWS

Home | Current Version | Previous Version | Text Only | Print | Product List | Glossary On
Versions: 1 2 3 4 5 6 7 8 9 10 11 12 13 14 15 16
832
FTUS42 KILM 270909 AAA
TAFCRE
TAF AMD
KCRE 270909Z 2709/2806 16004KT P6SM SCT045
      TEMPO 2710/2713 3SM BR
     FM271700 17009G15KT P6SM SCT060
     FM280000 19005KT P6SM SCT010=

USA.gov is the U.S. government's official web portal to all federal, state and local government web resources and services.